sensor_id;sensor_type;location;lat;lon;timestamp;temperature;humidity
2825;DHT22;1420;51.324;12.344;2024-01-07T00:01:18;-0.20;99.90
2825;DHT22;1420;51.324;12.344;2024-01-07T00:03:48;-0.20;99.90
2825;DHT22;1420;51.324;12.344;2024-01-07T00:06:21;-0.20;99.90
2825;DHT22;1420;51.324;12.344;2024-01-07T00:08:56;-0.20;99.90
2825;DHT22;1420;51.324;12.344;2024-01-07T00:11:28;-0.20;99.90
2825;DHT22;1420;51.324;12.344;2024-01-07T00:14:00;-0.30;99.90
2825;DHT22;1420;51.324;12.344;2024-01-07T00:16:30;-0.30;99.90
2825;DHT22;1420;51.324;12.344;2024-01-07T00:18:59;-0.30;99.90
2825;DHT22;1420;51.324;12.344;2024-01-07T00:21:31;-0.40;99.90
2825;DHT22;1420;51.324;12.344;2024-01-07T00:24:07;-0.50;99.90
2825;DHT22;1420;51.324;12.344;2024-01-07T00:26:38;-0.30;99.90
2825;DHT22;1420;51.324;12.344;2024-01-07T00:29:06;-0.20;99.90
2825;DHT22;1420;51.324;12.344;2024-01-07T00:31:39;-0.30;99.90
2825;DHT22;1420;51.324;12.344;2024-01-07T00:34:11;-0.20;99.90
2825;DHT22;1420;51.324;12.344;2024-01-07T00:36:45;-0.30;99.90
2825;DHT22;1420;51.324;12.344;2024-01-07T00:39:15;-0.30;99.90
2825;DHT22;1420;51.324;12.344;2024-01-07T00:41:45;-0.30;99.90
2825;DHT22;1420;51.324;12.344;2024-01-07T00:44:19;-0.40;99.90
2825;DHT22;1420;51.324;12.344;2024-01-07T00:46:53;-0.40;99.90
2825;DHT22;1420;51.324;12.344;2024-01-07T00:49:25;-0.40;99.90
2825;DHT22;1420;51.324;12.344;2024-01-07T00:51:56;-0.30;99.90
2825;DHT22;1420;51.324;12.344;2024-01-07T00:54:28;-0.50;99.90
2825;DHT22;1420;51.324;12.344;2024-01-07T00:57:01;-0.40;99.90
2825;DHT22;1420;51.324;12.344;2024-01-07T00:59:33;-0.50;99.90
2825;DHT22;1420;51.324;12.344;2024-01-07T01:02:07;-0.20;99.90
2825;DHT22;1420;51.324;12.344;2024-01-07T01:04:38;-0.30;99.90
2825;DHT22;1420;51.324;12.344;2024-01-07T01:07:07;-0.40;99.90
2825;DHT22;1420;51.324;12.344;2024-01-07T01:09:38;-0.40;99.90
2825;DHT22;1420;51.324;12.344;2024-01-07T01:12:15;-0.50;99.90
2825;DHT22;1420;51.324;12.344;2024-01-07T01:14:47;-0.50;99.90
2825;DHT22;1420;51.324;12.344;2024-01-07T01:17:20;-0.50;99.90
2825;DHT22;1420;51.324;12.344;2024-01-07T01:19:54;-0.40;99.90
2825;DHT22;1420;51.324;12.344;2024-01-07T01:22:30;-0.50;99.90
2825;DHT22;1420;51.324;12.344;2024-01-07T01:25:05;-0.40;99.90
2825;DHT22;1420;51.324;12.344;2024-01-07T01:27:36;-0.50;99.90
2825;DHT22;1420;51.324;12.344;2024-01-07T01:30:10;-0.40;99.90
2825;DHT22;1420;51.324;12.344;2024-01-07T01:32:42;-0.50;99.90
2825;DHT22;1420;51.324;12.344;2024-01-07T01:35:11;-0.50;99.90
2825;DHT22;1420;51.324;12.344;2024-01-07T01:37:44;-0.60;99.90
2825;DHT22;1420;51.324;12.344;2024-01-07T01:40:17;-0.50;99.90
2825;DHT22;1420;51.324;12.344;2024-01-07T01:42:50;-0.60;99.90
2825;DHT22;1420;51.324;12.344;2024-01-07T01:45:25;-0.50;99.90
2825;DHT22;1420;51.324;12.344;2024-01-07T01:47:58;-0.50;99.90
2825;DHT22;1420;51.324;12.344;2024-01-07T01:50:28;-0.50;99.90
2825;DHT22;1420;51.324;12.344;2024-01-07T01:53:02;-0.50;99.90
2825;DHT22;1420;51.324;12.344;2024-01-07T01:55:34;-0.60;99.90
2825;DHT22;1420;51.324;12.344;2024-01-07T01:58:08;-0.60;99.90
2825;DHT22;1420;51.324;12.344;2024-01-07T02:00:41;-0.60;99.90
2825;DHT22;1420;51.324;12.344;2024-01-07T02:03:19;-0.50;99.90
2825;DHT22;1420;51.324;12.344;2024-01-07T02:05:51;-0.60;99.90
2825;DHT22;1420;51.324;12.344;2024-01-07T02:08:20;-0.60;99.90
2825;DHT22;1420;51.324;12.344;2024-01-07T02:10:54;-0.50;99.90
2825;DHT22;1420;51.324;12.344;2024-01-07T02:13:23;-0.50;99.90
2825;DHT22;1420;51.324;12.344;2024-01-07T02:15:53;-0.50;99.90
2825;DHT22;1420;51.324;12.344;2024-01-07T02:18:21;-0.60;99.90
2825;DHT22;1420;51.324;12.344;2024-01-07T02:20:49;-0.60;99.90
2825;DHT22;1420;51.324;12.344;2024-01-07T02:23:20;-0.70;99.90
2825;DHT22;1420;51.324;12.344;2024-01-07T02:25:49;-0.70;99.90
2825;DHT22;1420;51.324;12.344;2024-01-07T02:28:20;-0.60;99.90
2825;DHT22;1420;51.324;12.344;2024-01-07T02:30:49;-0.60;99.90
2825;DHT22;1420;51.324;12.344;2024-01-07T02:33:22;-0.60;99.90
2825;DHT22;1420;51.324;12.344;2024-01-07T02:35:52;-0.60;99.90
2825;DHT22;1420;51.324;12.344;2024-01-07T02:38:24;-0.70;99.90
2825;DHT22;1420;51.324;12.344;2024-01-07T02:40:54;-0.70;99.90
2825;DHT22;1420;51.324;12.344;2024-01-07T02:43:23;-0.70;99.90
2825;DHT22;1420;51.324;12.344;2024-01-07T02:45:52;-0.70;99.90
2825;DHT22;1420;51.324;12.344;2024-01-07T02:48:25;-0.70;99.90
2825;DHT22;1420;51.324;12.344;2024-01-07T02:50:57;-0.70;99.90
2825;DHT22;1420;51.324;12.344;2024-01-07T02:53:27;-0.80;99.90
2825;DHT22;1420;51.324;12.344;2024-01-07T02:56:00;-0.80;99.90
2825;DHT22;1420;51.324;12.344;2024-01-07T02:58:29;-0.70;99.90
2825;DHT22;1420;51.324;12.344;2024-01-07T03:00:58;-0.80;99.90
2825;DHT22;1420;51.324;12.344;2024-01-07T03:03:27;-0.80;99.90
2825;DHT22;1420;51.324;12.344;2024-01-07T03:05:57;-0.90;99.90
2825;DHT22;1420;51.324;12.344;2024-01-07T03:08:28;-0.80;99.90
2825;DHT22;1420;51.324;12.344;2024-01-07T03:11:05;-0.80;99.90
2825;DHT22;1420;51.324;12.344;2024-01-07T03:13:35;-0.80;99.90
2825;DHT22;1420;51.324;12.344;2024-01-07T03:16:04;-0.90;99.90
2825;DHT22;1420;51.324;12.344;2024-01-07T03:18:34;-0.90;99.90
2825;DHT22;1420;51.324;12.344;2024-01-07T03:21:06;-0.90;99.90
2825;DHT22;1420;51.324;12.344;2024-01-07T03:23:35;-0.90;99.90
2825;DHT22;1420;51.324;12.344;2024-01-07T03:26:04;-0.90;99.90
2825;DHT22;1420;51.324;12.344;2024-01-07T03:28:35;-0.90;99.90
2825;DHT22;1420;51.324;12.344;2024-01-07T03:31:08;-1.00;99.90
2825;DHT22;1420;51.324;12.344;2024-01-07T03:33:37;-1.10;99.90
2825;DHT22;1420;51.324;12.344;2024-01-07T03:36:11;-1.00;99.90
2825;DHT22;1420;51.324;12.344;2024-01-07T03:38:42;-1.10;99.90
2825;DHT22;1420;51.324;12.344;2024-01-07T03:41:17;-1.10;99.90
2825;DHT22;1420;51.324;12.344;2024-01-07T03:43:48;-1.20;99.90
2825;DHT22;1420;51.324;12.344;2024-01-07T03:46:17;-1.20;99.90
2825;DHT22;1420;51.324;12.344;2024-01-07T03:48:47;-1.10;99.90
2825;DHT22;1420;51.324;12.344;2024-01-07T03:51:15;-1.10;99.90
2825;DHT22;1420;51.324;12.344;2024-01-07T03:53:48;-1.10;99.90
2825;DHT22;1420;51.324;12.344;2024-01-07T03:56:19;-1.20;99.90
2825;DHT22;1420;51.324;12.344;2024-01-07T03:58:52;-1.30;99.90
2825;DHT22;1420;51.324;12.344;2024-01-07T04:01:25;-1.20;99.90
2825;DHT22;1420;51.324;12.344;2024-01-07T04:03:57;-1.20;99.90
2825;DHT22;1420;51.324;12.344;2024-01-07T04:06:27;-1.30;99.90
2825;DHT22;1420;51.324;12.344;2024-01-07T04:08:59;-1.20;99.90
2825;DHT22;1420;51.324;12.344;2024-01-07T04:11:33;-1.30;99.90
2825;DHT22;1420;51.324;12.344;2024-01-07T04:14:06;-1.30;99.90
2825;DHT22;1420;51.324;12.344;2024-01-07T04:16:37;-1.40;99.90
2825;DHT22;1420;51.324;12.344;2024-01-07T04:19:08;-1.30;99.90
2825;DHT22;1420;51.324;12.344;2024-01-07T04:21:45;-1.40;99.90
2825;DHT22;1420;51.324;12.344;2024-01-07T04:24:15;-1.40;99.90
2825;DHT22;1420;51.324;12.344;2024-01-07T04:26:46;-1.30;99.90
2825;DHT22;1420;51.324;12.344;2024-01-07T04:29:20;-1.30;99.90
2825;DHT22;1420;51.324;12.344;2024-01-07T04:31:51;-1.30;99.90
2825;DHT22;1420;51.324;12.344;2024-01-07T04:34:22;-1.20;99.90
2825;DHT22;1420;51.324;12.344;2024-01-07T04:36:57;-1.30;99.90
2825;DHT22;1420;51.324;12.344;2024-01-07T04:39:31;-1.30;99.90
2825;DHT22;1420;51.324;12.344;2024-01-07T04:42:03;-1.40;99.90
2825;DHT22;1420;51.324;12.344;2024-01-07T04:44:32;-1.40;99.90
2825;DHT22;1420;51.324;12.344;2024-01-07T04:47:03;-1.30;99.90
2825;DHT22;1420;51.324;12.344;2024-01-07T04:49:39;-1.20;99.90
2825;DHT22;1420;51.324;12.344;2024-01-07T04:52:09;-1.30;99.90
2825;DHT22;1420;51.324;12.344;2024-01-07T04:54:38;-1.30;99.90
2825;DHT22;1420;51.324;12.344;2024-01-07T04:57:07;-1.30;99.90
2825;DHT22;1420;51.324;12.344;2024-01-07T04:59:35;-1.30;99.90
2825;DHT22;1420;51.324;12.344;2024-01-07T05:02:06;-1.30;99.90
2825;DHT22;1420;51.324;12.344;2024-01-07T05:04:35;-1.40;99.90
2825;DHT22;1420;51.324;12.344;2024-01-07T05:07:04;-1.50;99.90
2825;DHT22;1420;51.324;12.344;2024-01-07T05:09:35;-1.40;99.90
2825;DHT22;1420;51.324;12.344;2024-01-07T05:12:07;-1.40;99.90
2825;DHT22;1420;51.324;12.344;2024-01-07T05:14:40;-1.50;99.90
2825;DHT22;1420;51.324;12.344;2024-01-07T05:17:09;-1.40;99.90
2825;DHT22;1420;51.324;12.344;2024-01-07T05:19:43;-1.40;99.90
2825;DHT22;1420;51.324;12.344;2024-01-07T05:22:16;-1.40;99.90
2825;DHT22;1420;51.324;12.344;2024-01-07T05:24:49;-1.40;99.90
2825;DHT22;1420;51.324;12.344;2024-01-07T05:27:19;-1.40;99.90
2825;DHT22;1420;51.324;12.344;2024-01-07T05:29:50;-1.40;99.90
2825;DHT22;1420;51.324;12.344;2024-01-07T05:32:23;-1.50;99.90
2825;DHT22;1420;51.324;12.344;2024-01-07T05:34:55;-1.50;99.90
2825;DHT22;1420;51.324;12.344;2024-01-07T05:37:26;-1.50;99.90
2825;DHT22;1420;51.324;12.344;2024-01-07T05:39:53;-1.50;99.90
2825;DHT22;1420;51.324;12.344;2024-01-07T05:42:21;-1.50;99.90
2825;DHT22;1420;51.324;12.344;2024-01-07T05:44:48;-1.50;99.90
2825;DHT22;1420;51.324;12.344;2024-01-07T05:47:15;-1.50;99.90
2825;DHT22;1420;51.324;12.344;2024-01-07T05:49:42;-1.50;99.90
2825;DHT22;1420;51.324;12.344;2024-01-07T05:52:09;-1.60;99.90
2825;DHT22;1420;51.324;12.344;2024-01-07T05:54:37;-1.60;99.90
2825;DHT22;1420;51.324;12.344;2024-01-07T05:57:04;-1.60;99.90
2825;DHT22;1420;51.324;12.344;2024-01-07T05:59:32;-1.50;99.90
2825;DHT22;1420;51.324;12.344;2024-01-07T06:01:59;-1.50;99.90
2825;DHT22;1420;51.324;12.344;2024-01-07T06:04:26;-1.50;99.90
2825;DHT22;1420;51.324;12.344;2024-01-07T06:06:54;-1.60;99.90
2825;DHT22;1420;51.324;12.344;2024-01-07T06:09:21;-1.60;99.90
2825;DHT22;1420;51.324;12.344;2024-01-07T06:11:48;-1.60;99.90
2825;DHT22;1420;51.324;12.344;2024-01-07T06:14:15;-1.50;99.90
2825;DHT22;1420;51.324;12.344;2024-01-07T06:16:42;-1.60;99.90
2825;DHT22;1420;51.324;12.344;2024-01-07T06:19:09;-1.70;99.90
2825;DHT22;1420;51.324;12.344;2024-01-07T06:21:37;-1.60;99.90
2825;DHT22;1420;51.324;12.344;2024-01-07T06:24:04;-1.60;99.90
2825;DHT22;1420;51.324;12.344;2024-01-07T06:26:31;-1.50;99.90
2825;DHT22;1420;51.324;12.344;2024-01-07T06:28:59;-1.60;99.90
2825;DHT22;1420;51.324;12.344;2024-01-07T06:31:27;-1.60;99.90
2825;DHT22;1420;51.324;12.344;2024-01-07T06:33:55;-1.60;99.90
2825;DHT22;1420;51.324;12.344;2024-01-07T06:36:22;-1.60;99.90
2825;DHT22;1420;51.324;12.344;2024-01-07T06:38:50;-1.60;99.90
2825;DHT22;1420;51.324;12.344;2024-01-07T06:41:17;-1.60;99.90
2825;DHT22;1420;51.324;12.344;2024-01-07T06:43:44;-1.60;99.90
2825;DHT22;1420;51.324;12.344;2024-01-07T06:46:11;-1.60;99.90
2825;DHT22;1420;51.324;12.344;2024-01-07T06:48:38;-1.50;99.90
2825;DHT22;1420;51.324;12.344;2024-01-07T06:51:06;-1.60;99.90
2825;DHT22;1420;51.324;12.344;2024-01-07T06:53:33;-1.70;99.90
2825;DHT22;1420;51.324;12.344;2024-01-07T06:56:00;-1.60;99.90
2825;DHT22;1420;51.324;12.344;2024-01-07T06:58:27;-1.70;99.90
2825;DHT22;1420;51.324;12.344;2024-01-07T07:00:54;-1.60;99.90
2825;DHT22;1420;51.324;12.344;2024-01-07T07:03:22;-1.70;99.90
2825;DHT22;1420;51.324;12.344;2024-01-07T07:05:49;-1.70;99.90
2825;DHT22;1420;51.324;12.344;2024-01-07T07:08:16;-1.70;99.90
2825;DHT22;1420;51.324;12.344;2024-01-07T07:10:43;-1.80;99.90
2825;DHT22;1420;51.324;12.344;2024-01-07T07:13:11;-1.70;99.90
2825;DHT22;1420;51.324;12.344;2024-01-07T07:15:38;-1.80;99.90
2825;DHT22;1420;51.324;12.344;2024-01-07T07:18:05;-1.70;99.90
2825;DHT22;1420;51.324;12.344;2024-01-07T07:20:32;-1.80;99.90
2825;DHT22;1420;51.324;12.344;2024-01-07T07:22:59;-1.80;99.90
2825;DHT22;1420;51.324;12.344;2024-01-07T07:25:26;-1.80;99.90
2825;DHT22;1420;51.324;12.344;2024-01-07T07:27:54;-1.80;99.90
2825;DHT22;1420;51.324;12.344;2024-01-07T07:30:21;-1.80;99.90
2825;DHT22;1420;51.324;12.344;2024-01-07T07:32:48;-1.90;99.90
2825;DHT22;1420;51.324;12.344;2024-01-07T07:35:15;-1.90;99.90
2825;DHT22;1420;51.324;12.344;2024-01-07T07:37:43;-1.90;99.90
2825;DHT22;1420;51.324;12.344;2024-01-07T07:40:10;-2.00;99.90
2825;DHT22;1420;51.324;12.344;2024-01-07T07:42:38;-2.00;99.90
2825;DHT22;1420;51.324;12.344;2024-01-07T07:45:06;-2.00;99.90
2825;DHT22;1420;51.324;12.344;2024-01-07T07:47:33;-2.00;99.90
2825;DHT22;1420;51.324;12.344;2024-01-07T07:50:00;-2.10;99.90
2825;DHT22;1420;51.324;12.344;2024-01-07T07:52:28;-2.00;99.90
2825;DHT22;1420;51.324;12.344;2024-01-07T07:54:54;-2.00;99.90
2825;DHT22;1420;51.324;12.344;2024-01-07T07:57:22;-1.90;99.90
2825;DHT22;1420;51.324;12.344;2024-01-07T07:59:49;-2.00;99.90
2825;DHT22;1420;51.324;12.344;2024-01-07T08:02:27;-2.10;99.90
2825;DHT22;1420;51.324;12.344;2024-01-07T08:04:54;-2.10;99.90
2825;DHT22;1420;51.324;12.344;2024-01-07T08:07:22;-2.20;99.90
2825;DHT22;1420;51.324;12.344;2024-01-07T08:09:49;-2.30;99.90
2825;DHT22;1420;51.324;12.344;2024-01-07T08:12:16;-0.10;99.90
2825;DHT22;1420;51.324;12.344;2024-01-07T08:14:44;-0.70;99.90
2825;DHT22;1420;51.324;12.344;2024-01-07T08:17:11;-0.70;99.90
2825;DHT22;1420;51.324;12.344;2024-01-07T08:19:38;-0.60;99.90
2825;DHT22;1420;51.324;12.344;2024-01-07T08:22:05;-0.70;99.90
2825;DHT22;1420;51.324;12.344;2024-01-07T08:24:32;-1.00;99.90
2825;DHT22;1420;51.324;12.344;2024-01-07T08:27:00;-0.70;99.90
2825;DHT22;1420;51.324;12.344;2024-01-07T08:29:27;-0.80;99.90
2825;DHT22;1420;51.324;12.344;2024-01-07T08:31:54;-1.40;99.90
2825;DHT22;1420;51.324;12.344;2024-01-07T08:34:21;-1.80;99.90
2825;DHT22;1420;51.324;12.344;2024-01-07T08:36:48;-2.00;99.90
2825;DHT22;1420;51.324;12.344;2024-01-07T08:39:16;-2.00;99.90
2825;DHT22;1420;51.324;12.344;2024-01-07T08:41:43;-2.10;99.90
2825;DHT22;1420;51.324;12.344;2024-01-07T08:44:10;-2.30;99.90
2825;DHT22;1420;51.324;12.344;2024-01-07T08:46:37;-2.30;99.90
2825;DHT22;1420;51.324;12.344;2024-01-07T08:49:04;-2.30;99.90
2825;DHT22;1420;51.324;12.344;2024-01-07T08:51:32;-2.40;99.90
2825;DHT22;1420;51.324;12.344;2024-01-07T08:53:59;-2.40;99.90
2825;DHT22;1420;51.324;12.344;2024-01-07T08:56:26;-2.40;99.90
2825;DHT22;1420;51.324;12.344;2024-01-07T08:58:53;-2.50;99.90
2825;DHT22;1420;51.324;12.344;2024-01-07T09:01:21;-2.60;99.90
2825;DHT22;1420;51.324;12.344;2024-01-07T09:03:48;-2.70;99.90
2825;DHT22;1420;51.324;12.344;2024-01-07T09:06:16;-2.60;99.90
2825;DHT22;1420;51.324;12.344;2024-01-07T09:08:44;-2.50;99.90
2825;DHT22;1420;51.324;12.344;2024-01-07T09:11:12;-2.50;99.90
2825;DHT22;1420;51.324;12.344;2024-01-07T09:13:39;-2.50;99.90
2825;DHT22;1420;51.324;12.344;2024-01-07T09:16:06;-2.50;99.90
2825;DHT22;1420;51.324;12.344;2024-01-07T09:18:33;-2.50;99.90
2825;DHT22;1420;51.324;12.344;2024-01-07T09:21:00;-2.50;99.90
2825;DHT22;1420;51.324;12.344;2024-01-07T09:23:28;-2.50;99.90
2825;DHT22;1420;51.324;12.344;2024-01-07T09:25:55;-2.30;99.90
2825;DHT22;1420;51.324;12.344;2024-01-07T09:28:22;-2.30;99.90
2825;DHT22;1420;51.324;12.344;2024-01-07T09:30:49;-2.40;99.90
2825;DHT22;1420;51.324;12.344;2024-01-07T09:33:16;-2.30;99.90
2825;DHT22;1420;51.324;12.344;2024-01-07T09:35:44;-2.40;99.90
2825;DHT22;1420;51.324;12.344;2024-01-07T09:38:11;-2.40;99.90
2825;DHT22;1420;51.324;12.344;2024-01-07T09:40:38;-2.40;99.90
2825;DHT22;1420;51.324;12.344;2024-01-07T09:43:05;-2.40;99.90
2825;DHT22;1420;51.324;12.344;2024-01-07T09:45:33;-2.40;99.90
2825;DHT22;1420;51.324;12.344;2024-01-07T09:48:00;-2.50;99.90
2825;DHT22;1420;51.324;12.344;2024-01-07T09:50:27;-2.40;99.90
2825;DHT22;1420;51.324;12.344;2024-01-07T09:52:55;-2.40;99.90
2825;DHT22;1420;51.324;12.344;2024-01-07T09:55:26;-2.40;99.90
2825;DHT22;1420;51.324;12.344;2024-01-07T09:57:50;-2.40;99.90
2825;DHT22;1420;51.324;12.344;2024-01-07T10:00:17;-2.50;99.90
2825;DHT22;1420;51.324;12.344;2024-01-07T10:02:44;-2.50;99.90
2825;DHT22;1420;51.324;12.344;2024-01-07T10:05:11;-2.40;99.90
2825;DHT22;1420;51.324;12.344;2024-01-07T10:07:39;-2.10;99.90
2825;DHT22;1420;51.324;12.344;2024-01-07T10:10:14;-2.20;99.90
2825;DHT22;1420;51.324;12.344;2024-01-07T10:12:41;-1.90;99.90
2825;DHT22;1420;51.324;12.344;2024-01-07T10:15:08;-2.10;99.90
2825;DHT22;1420;51.324;12.344;2024-01-07T10:17:35;-2.20;99.90
2825;DHT22;1420;51.324;12.344;2024-01-07T10:20:04;-2.20;99.90
2825;DHT22;1420;51.324;12.344;2024-01-07T10:22:30;-2.20;99.90
2825;DHT22;1420;51.324;12.344;2024-01-07T10:24:58;-2.10;99.90
2825;DHT22;1420;51.324;12.344;2024-01-07T10:27:26;-2.10;99.90
2825;DHT22;1420;51.324;12.344;2024-01-07T10:29:53;-2.10;99.90
2825;DHT22;1420;51.324;12.344;2024-01-07T10:32:20;-2.10;99.90
2825;DHT22;1420;51.324;12.344;2024-01-07T10:34:47;-2.10;99.90
2825;DHT22;1420;51.324;12.344;2024-01-07T10:37:15;-2.10;99.90
2825;DHT22;1420;51.324;12.344;2024-01-07T10:39:42;-2.00;99.90
2825;DHT22;1420;51.324;12.344;2024-01-07T10:42:09;-2.00;99.90
2825;DHT22;1420;51.324;12.344;2024-01-07T10:44:37;-1.90;99.90
2825;DHT22;1420;51.324;12.344;2024-01-07T10:47:05;-2.00;99.90
2825;DHT22;1420;51.324;12.344;2024-01-07T10:49:31;-1.90;99.90
2825;DHT22;1420;51.324;12.344;2024-01-07T10:52:02;-1.90;99.90
2825;DHT22;1420;51.324;12.344;2024-01-07T10:54:29;-1.90;99.90
2825;DHT22;1420;51.324;12.344;2024-01-07T10:56:58;-1.50;99.90
2825;DHT22;1420;51.324;12.344;2024-01-07T10:59:24;-1.60;99.90
2825;DHT22;1420;51.324;12.344;2024-01-07T11:01:51;-1.60;99.90
2825;DHT22;1420;51.324;12.344;2024-01-07T11:04:23;-1.50;99.90
2825;DHT22;1420;51.324;12.344;2024-01-07T11:07:09;-1.70;99.90
2825;DHT22;1420;51.324;12.344;2024-01-07T11:09:35;-1.90;99.90
2825;DHT22;1420;51.324;12.344;2024-01-07T11:12:00;-1.70;99.90
2825;DHT22;1420;51.324;12.344;2024-01-07T11:14:37;-1.70;99.90
2825;DHT22;1420;51.324;12.344;2024-01-07T11:17:03;-1.60;99.90
2825;DHT22;1420;51.324;12.344;2024-01-07T11:19:30;-1.70;99.90
2825;DHT22;1420;51.324;12.344;2024-01-07T11:24:51;-1.80;99.90
2825;DHT22;1420;51.324;12.344;2024-01-07T11:27:17;-1.80;99.90
2825;DHT22;1420;51.324;12.344;2024-01-07T11:29:52;-1.80;99.90
2825;DHT22;1420;51.324;12.344;2024-01-07T11:32:13;-1.90;99.90
2825;DHT22;1420;51.324;12.344;2024-01-07T11:34:40;-1.80;99.90
2825;DHT22;1420;51.324;12.344;2024-01-07T11:37:09;-1.70;99.90
2825;DHT22;1420;51.324;12.344;2024-01-07T11:39:35;-1.70;99.90
2825;DHT22;1420;51.324;12.344;2024-01-07T11:42:03;-1.70;99.90
2825;DHT22;1420;51.324;12.344;2024-01-07T11:44:33;-1.80;99.90
2825;DHT22;1420;51.324;12.344;2024-01-07T11:46:57;-1.90;99.90
2825;DHT22;1420;51.324;12.344;2024-01-07T11:49:24;-1.80;99.90
2825;DHT22;1420;51.324;12.344;2024-01-07T11:51:51;-1.60;99.90
2825;DHT22;1420;51.324;12.344;2024-01-07T11:54:19;-1.70;99.90
2825;DHT22;1420;51.324;12.344;2024-01-07T11:56:46;-1.70;99.90
2825;DHT22;1420;51.324;12.344;2024-01-07T11:59:17;-1.80;99.90
2825;DHT22;1420;51.324;12.344;2024-01-07T12:01:48;-1.80;99.90
2825;DHT22;1420;51.324;12.344;2024-01-07T12:04:15;-1.70;99.90
2825;DHT22;1420;51.324;12.344;2024-01-07T12:06:43;-1.70;99.90
2825;DHT22;1420;51.324;12.344;2024-01-07T12:09:11;-1.80;99.90
2825;DHT22;1420;51.324;12.344;2024-01-07T12:11:37;-1.70;99.90
2825;DHT22;1420;51.324;12.344;2024-01-07T12:14:05;-1.70;99.90
2825;DHT22;1420;51.324;12.344;2024-01-07T12:16:32;-1.70;99.90
2825;DHT22;1420;51.324;12.344;2024-01-07T12:19:00;-1.60;99.90
2825;DHT22;1420;51.324;12.344;2024-01-07T12:21:27;-1.50;99.90
2825;DHT22;1420;51.324;12.344;2024-01-07T12:23:54;-1.40;99.90
2825;DHT22;1420;51.324;12.344;2024-01-07T12:26:21;-1.40;99.90
2825;DHT22;1420;51.324;12.344;2024-01-07T12:28:54;-1.40;99.90
2825;DHT22;1420;51.324;12.344;2024-01-07T12:31:21;-1.50;99.90
2825;DHT22;1420;51.324;12.344;2024-01-07T12:33:48;-1.50;99.90
2825;DHT22;1420;51.324;12.344;2024-01-07T12:36:15;-1.50;99.90
2825;DHT22;1420;51.324;12.344;2024-01-07T12:38:42;-1.50;99.90
2825;DHT22;1420;51.324;12.344;2024-01-07T12:41:09;-1.60;99.90
2825;DHT22;1420;51.324;12.344;2024-01-07T12:43:37;-1.50;99.90
2825;DHT22;1420;51.324;12.344;2024-01-07T12:46:04;-1.50;99.90
2825;DHT22;1420;51.324;12.344;2024-01-07T12:48:31;-1.40;99.90
2825;DHT22;1420;51.324;12.344;2024-01-07T12:51:00;-1.40;99.90
2825;DHT22;1420;51.324;12.344;2024-01-07T12:53:25;-1.20;99.90
2825;DHT22;1420;51.324;12.344;2024-01-07T12:55:53;-1.30;99.90
2825;DHT22;1420;51.324;12.344;2024-01-07T12:58:20;-1.30;99.90
2825;DHT22;1420;51.324;12.344;2024-01-07T13:00:47;-1.30;99.90
2825;DHT22;1420;51.324;12.344;2024-01-07T13:03:14;-1.30;99.90
2825;DHT22;1420;51.324;12.344;2024-01-07T13:05:44;-1.20;99.90
2825;DHT22;1420;51.324;12.344;2024-01-07T13:08:12;-1.20;99.90
2825;DHT22;1420;51.324;12.344;2024-01-07T13:10:38;-1.20;99.90
2825;DHT22;1420;51.324;12.344;2024-01-07T13:13:06;-1.20;99.90
2825;DHT22;1420;51.324;12.344;2024-01-07T13:15:33;-1.30;99.90
2825;DHT22;1420;51.324;12.344;2024-01-07T13:18:00;-1.30;99.90
2825;DHT22;1420;51.324;12.344;2024-01-07T13:20:27;-1.40;99.90
2825;DHT22;1420;51.324;12.344;2024-01-07T13:22:54;-1.40;99.90
2825;DHT22;1420;51.324;12.344;2024-01-07T13:25:22;-1.30;99.90
2825;DHT22;1420;51.324;12.344;2024-01-07T13:27:49;-1.30;99.90
2825;DHT22;1420;51.324;12.344;2024-01-07T13:30:16;-1.20;99.90
2825;DHT22;1420;51.324;12.344;2024-01-07T13:32:43;-1.30;99.90
2825;DHT22;1420;51.324;12.344;2024-01-07T13:35:10;-1.30;99.90
2825;DHT22;1420;51.324;12.344;2024-01-07T13:37:38;-1.30;99.90
2825;DHT22;1420;51.324;12.344;2024-01-07T13:40:06;-1.30;99.90
2825;DHT22;1420;51.324;12.344;2024-01-07T13:42:33;-1.20;99.90
2825;DHT22;1420;51.324;12.344;2024-01-07T13:45:00;-1.20;99.90
2825;DHT22;1420;51.324;12.344;2024-01-07T13:47:27;-1.20;99.90
2825;DHT22;1420;51.324;12.344;2024-01-07T13:49:54;-1.10;99.90
2825;DHT22;1420;51.324;12.344;2024-01-07T13:52:22;-1.10;99.90
2825;DHT22;1420;51.324;12.344;2024-01-07T13:54:49;-1.10;99.90
2825;DHT22;1420;51.324;12.344;2024-01-07T13:57:16;-1.00;99.90
2825;DHT22;1420;51.324;12.344;2024-01-07T13:59:43;-1.10;99.90
2825;DHT22;1420;51.324;12.344;2024-01-07T14:02:11;-1.10;99.90
2825;DHT22;1420;51.324;12.344;2024-01-07T14:04:38;-1.10;99.90
2825;DHT22;1420;51.324;12.344;2024-01-07T14:07:05;-1.10;99.90
2825;DHT22;1420;51.324;12.344;2024-01-07T14:09:32;-1.10;99.90
2825;DHT22;1420;51.324;12.344;2024-01-07T14:11:59;-1.20;99.90
2825;DHT22;1420;51.324;12.344;2024-01-07T14:14:27;-1.10;99.90
2825;DHT22;1420;51.324;12.344;2024-01-07T14:16:54;-1.20;99.90
2825;DHT22;1420;51.324;12.344;2024-01-07T14:19:21;-1.20;99.90
2825;DHT22;1420;51.324;12.344;2024-01-07T14:21:48;-1.30;99.90
2825;DHT22;1420;51.324;12.344;2024-01-07T14:24:19;-1.30;99.90
2825;DHT22;1420;51.324;12.344;2024-01-07T14:26:49;-1.30;99.90
2825;DHT22;1420;51.324;12.344;2024-01-07T14:29:18;-1.40;99.90
2825;DHT22;1420;51.324;12.344;2024-01-07T14:31:45;-1.30;99.90
2825;DHT22;1420;51.324;12.344;2024-01-07T14:34:12;-1.30;99.90
2825;DHT22;1420;51.324;12.344;2024-01-07T14:36:40;-1.30;99.90
2825;DHT22;1420;51.324;12.344;2024-01-07T14:39:08;-1.30;99.90
2825;DHT22;1420;51.324;12.344;2024-01-07T14:41:35;-1.30;99.90
2825;DHT22;1420;51.324;12.344;2024-01-07T14:44:02;-1.30;99.90
2825;DHT22;1420;51.324;12.344;2024-01-07T14:46:30;-1.30;99.90
2825;DHT22;1420;51.324;12.344;2024-01-07T14:48:58;-1.30;99.90
2825;DHT22;1420;51.324;12.344;2024-01-07T14:51:26;-1.40;99.90
2825;DHT22;1420;51.324;12.344;2024-01-07T14:53:54;-1.40;99.90
2825;DHT22;1420;51.324;12.344;2024-01-07T14:56:21;-1.40;99.90
2825;DHT22;1420;51.324;12.344;2024-01-07T14:58:48;-1.30;99.90
2825;DHT22;1420;51.324;12.344;2024-01-07T15:01:15;-1.40;99.90
2825;DHT22;1420;51.324;12.344;2024-01-07T15:03:42;-1.40;99.90
2825;DHT22;1420;51.324;12.344;2024-01-07T15:06:10;-1.40;99.90
2825;DHT22;1420;51.324;12.344;2024-01-07T15:08:37;-1.40;99.90
2825;DHT22;1420;51.324;12.344;2024-01-07T15:11:04;-1.40;99.90
2825;DHT22;1420;51.324;12.344;2024-01-07T15:13:32;-1.50;99.90
2825;DHT22;1420;51.324;12.344;2024-01-07T15:15:59;-1.50;99.90
2825;DHT22;1420;51.324;12.344;2024-01-07T15:18:26;-1.40;99.90
2825;DHT22;1420;51.324;12.344;2024-01-07T15:20:54;-1.40;99.90
2825;DHT22;1420;51.324;12.344;2024-01-07T15:23:21;-1.50;99.90
2825;DHT22;1420;51.324;12.344;2024-01-07T15:25:48;-1.50;99.90
2825;DHT22;1420;51.324;12.344;2024-01-07T15:28:15;-1.50;99.90
2825;DHT22;1420;51.324;12.344;2024-01-07T15:30:43;-1.60;99.90
2825;DHT22;1420;51.324;12.344;2024-01-07T15:33:10;-1.60;99.90
2825;DHT22;1420;51.324;12.344;2024-01-07T15:35:37;-1.70;99.90
2825;DHT22;1420;51.324;12.344;2024-01-07T15:38:04;-1.60;99.90
2825;DHT22;1420;51.324;12.344;2024-01-07T15:40:31;-1.70;99.90
2825;DHT22;1420;51.324;12.344;2024-01-07T15:42:59;-1.60;99.90
2825;DHT22;1420;51.324;12.344;2024-01-07T15:45:26;-1.60;99.90
2825;DHT22;1420;51.324;12.344;2024-01-07T15:47:53;-1.60;99.90
2825;DHT22;1420;51.324;12.344;2024-01-07T15:50:20;-1.60;99.90
2825;DHT22;1420;51.324;12.344;2024-01-07T15:52:47;-1.60;99.90
2825;DHT22;1420;51.324;12.344;2024-01-07T15:55:15;-1.60;99.90
2825;DHT22;1420;51.324;12.344;2024-01-07T15:57:42;-1.60;99.90